Tigerville, South Carolina
Current Conditions -  °F | °C
As of 6:53 PM on Friday 19 Dec 2014 (Local Time) from KGMU Reporting Station
Clear Clear  
Wind Chill: 51°   Ceiling: Unl
Heat Index: 51°   Visibility: 10mi
Dew Point: 32°   Wind: 3mph
Humidity: 48%   Direction: 120°ESE
Pressure: 30.12"   Gusts: NA
Location:  35.07°N, 82.37°W
Report Text: KGMU 192353Z 12003KT 10SM CLR 11/00 A3012 RMK AO2 SLP202 T01060000 10139 20106 50008
Loading
Personal Weather Stations






























Interactive Weather Map New forecast layout! Learn more

10-Day Weather Forecast

Advertisements
Track Severe Weather on mobile